• Join FlightAware (Why Join?)
  • Login
  • US Flag 
07:44PM EDT


 

Airport Tracker/Info


-or-


 

Live Flight TrackerFlight Track Log ✈ ELJ309 ✈ 05-May-2013 ✈ KCHS - KCLE

Flight Track Log - Related Links

Times and Time Zones

All times are in EDT time to prevent confusion due to time zone crossing. See the ELJ309 flight status page for this flight to view local times or setup timezone preferences in your user account.

Time Position Orientation Groundspeed Altitude Reporting Facility
EDT Latitude Longitude Course Direction KTS MPH feet Rate Location/Type
08:29PM 32.9908 -80.0669 314° West 267 307 4,400  Level Jacksonville Center
08:30PM 33.0522 -80.0994 336° Northwest 273 314 8,100 3,060 Climbing Jacksonville Center
08:31PM 33.1197 -80.1372 335° Northwest 287 330 10,600 2,460 Climbing Jacksonville Center
08:32PM 33.2019 -80.1792 337° Northwest 302 348 13,100 2,400 Climbing Jacksonville Center
08:33PM 33.2986 -80.2011 349° North 325 374 15,500 2,400 Climbing Jacksonville Center
08:34PM 33.4159 -80.3698 314° West  Level FlightAware Approximate
08:34PM 33.3928 -80.2233 349° North 337 388 17,900  Level Jacksonville Center
08:35PM 33.4872 -80.2478 348° North 343 395 20,400 2,220 Climbing Jacksonville Center
08:36PM 33.5881 -80.2722 349° North 349 402 22,400 1,740 Climbing Jacksonville Center
08:37PM 33.6908 -80.2967 349° North 359 413 23,900 1,500 Climbing Jacksonville Center
08:38PM 33.7936 -80.3261 347° North 369 425 25,400 1,500 Climbing Jacksonville Center
08:39PM 33.9067 -80.3503 350° North 384 442 26,900 1,500 Climbing Jacksonville Center
08:40PM 34.0158 -80.3797 347° North 396 456 28,400 1,380 Climbing Jacksonville Center
08:41PM 34.1292 -80.4064 349° North 401 461 29,700 1,200 Climbing Jacksonville Center
08:42PM 34.2464 -80.4358 348° North 412 474 30,800 1,080 Climbing Jacksonville Center
08:44PM 34.5536 -80.5181 348° North 443 510 33,600 1,020 Climbing Atlanta Center
08:45PM 34.6608 -80.5464 348° North 448 516 34,400 660 Climbing Atlanta Center
08:46PM 34.7847 -80.5789 348° North 448 516 35,000 300 Climbing Atlanta Center
08:47PM 34.9108 -80.6067 350° North 458 527 35,000 180 Level Atlanta Center
08:48PM 35.0453 -80.6417 348° North 478 550 35,400 600 Climbing Atlanta Center
08:49PM 35.1756 -80.6694 350° North 478 550 36,300 900 Climbing Atlanta Center
08:50PM 35.3036 -80.7050 347° North 472 543 37,300 900 Climbing Atlanta Center
08:51PM 35.4256 -80.7356 348° North 459 528 38,200 900 Climbing Atlanta Center
08:52PM 35.5494 -80.7664 349° North 453 521 39,200 900 Climbing Atlanta Center
08:53PM 35.6692 -80.7975 348° North 453 521 40,100 360 Climbing Atlanta Center
08:54PM 35.7911 -80.8283 348° North 448 516 40,000 -60 Descending Atlanta Center
08:55PM 35.9128 -80.8619 347° North 448 516 40,000  Level Atlanta Center
08:56PM 36.0494 -80.8978 348° North 453 521 40,000  Level Atlanta Center
08:57PM 36.1753 -80.9314 348° North 453 521 40,000  Level Atlanta Center
08:58PM 36.2992 -80.9628 348° North 447 514 40,000  Level Atlanta Center
08:59PM 36.4231 -80.9967 348° North 447 514 40,000  Level Atlanta Center
09:01PM 36.6200 -81.0494 348° North 452 520 40,000  Level Indianapolis Center
09:02PM 36.7392 -81.0808 348° North 449 517 40,000  Level Indianapolis Center
09:03PM 36.8606 -81.1136 348° North 453 521 40,000  Level Indianapolis Center
09:04PM 36.9806 -81.1458 348° North 453 521 40,000  Level Indianapolis Center
09:05PM 37.1194 -81.1817 348° North 456 525 40,000  Level Indianapolis Center
09:06PM 37.2433 -81.2158 348° North 454 522 40,000  Level Indianapolis Center
09:07PM 37.3708 -81.2506 348° North 458 527 40,000  Level Indianapolis Center
09:08PM 37.4919 -81.2836 348° North 456 525 40,000  Level Indianapolis Center
09:09PM 37.6383 -81.3236 348° North 457 526 40,000  Level Indianapolis Center
09:10PM 37.7597 -81.3567 348° North 457 526 40,000  Level Indianapolis Center
09:11PM 37.8761 -81.3886 348° North 459 528 40,000  Level Indianapolis Center
09:12PM 37.9997 -81.4225 348° North 456 525 40,000  Level Indianapolis Center
09:13PM 38.1261 -81.4592 347° North 463 533 40,000 -420 Level Indianapolis Center
09:14PM 38.2531 -81.4928 348° North 464 534 39,200 -1,140 Descending Indianapolis Center
09:15PM 38.3844 -81.5303 347° North 478 550 37,700 -1,680 Descending Indianapolis Center
09:16PM 38.5403 -81.5844 345° North 481 554 35,800 -1,620 Descending Indianapolis Center
09:17PM 38.6478 -81.6408 338° Northwest 477 549 34,500 -900 Descending Indianapolis Center
09:18PM 38.7722 -81.6753 348° North 465 535 34,000 -300 Descending Indianapolis Center
09:19PM 38.8964 -81.7075 349° North 451 519 34,000 -240 Level Indianapolis Center
09:20PM 39.0194 -81.7389 349° North 448 516 33,600 -1,140 Descending Indianapolis Center
09:22PM 39.1719 -81.7800 348° North 463 533 31,800 -1,680 Descending Indianapolis Center
09:23PM 39.2972 -81.8108 349° North 460 529 30,200 -1,620 Descending Indianapolis Center
09:24PM 39.4183 -81.8439 348° North 450 518 28,500 -1,620 Descending Indianapolis Center
09:25PM 39.5394 -81.8767 348° North 444 511 27,000 -1,560 Descending Indianapolis Center
09:26PM 39.6583 -81.9086 348° North 438 504 25,400 -1,620 Descending Indianapolis Center
09:27PM 39.7847 -81.9411 349° North 436 502 23,800 -1,560 Descending Indianapolis Center
09:28PM 39.9017 -81.9739 348° North 429 494 22,300 -1,560 Descending Indianapolis Center
09:29PM 40.0200 -82.0064 348° North 431 496 20,700 -1,560 Descending Indianapolis Center
09:30PM 40.1394 -82.0397 348° North 436 502 19,200 -1,620 Descending Indianapolis Center
09:31PM 40.2608 -82.0722 348° North 431 496 17,500 -1,620 Descending Indianapolis Center
09:32PM 40.3669 -82.1011 348° North 391 450 15,900 -1,440 Descending Indianapolis Center
09:32PM 40.4008 -82.1097 349° North 400 460 15,500 -660 Descending Cleveland Center
09:33PM 40.4992 -82.0875 10° North 361 415 15,000 -660 Descending Cleveland Center
09:34PM 40.5814 -82.0047 37° Northeast 347 399 14,200 -960 Descending Cleveland Center
09:35PM 40.6700 -81.9164 37° Northeast 355 409 13,100 -1,200 Descending Cleveland Center
09:36PM 40.7103 -81.8786 35° Northeast 379 436 12,500 -1,140 Descending Cleveland Center
09:36PM 40.7567 -81.8303 38° Northeast 372 428 12,000 -1,020 Descending Cleveland Center
09:37PM 40.7922 -81.7981 34° Northeast 378 435 11,500 -1,140 Descending Cleveland Center
09:37PM 40.8386 -81.7494 38° Northeast 372 428 10,900 -1,200 Descending Cleveland Center
09:38PM 40.8931 -81.7506 359° North 372 428 10,300 -900 Descending Cleveland Center
09:38PM 40.9389 -81.7514 359° North 349 402 10,000 -360 Descending Cleveland Center
09:39PM 40.9742 -81.7656 343° North 339 390 10,000  Level Cleveland Center
09:39PM 41.0217 -81.8022 330° Northwest 321 369 10,000 -300 Level Cleveland Center
09:40PM 41.0525 -81.8358 321° Northwest 309 356 9,700 -900 Descending Cleveland Center
09:40PM 41.0917 -81.8697 327° Northwest 302 348 9,100 -1,140 Descending Cleveland Center
09:41PM 41.1247 -81.8953 330° Northwest 300 345 8,600 -1,140 Descending Cleveland Center
09:41PM 41.1642 -81.9181 337° Northwest 296 341 8,000 -1,020 Descending Cleveland Center
09:42PM 41.1994 -81.9408 334° Northwest 296 341 7,600 -900 Descending Cleveland Center
09:42PM 41.2325 -81.9553 342° North 290 334 7,100 -1,320 Descending Cleveland Center
09:43PM 41.2739 -81.9756 340° North 281 323 6,300 -1,500 Descending Cleveland Center
09:43PM 41.3072 -81.9792 355° North 279 321 5,600 -2,520 Descending Cleveland Center
09:44PM 41.3428 -81.9689 12° North 251 289 3,800 -2,940 Descending Cleveland Center
09:44PM 41.3600 -81.9386 53° Northeast 207 238 2,700 -1,920 Descending Cleveland Center
09:45PM 41.3811 -81.9031 52° Northeast 210 242 1,900 -540 Descending Cleveland Center
09:46PM 41.4214 -81.8514 44° Northeast 177 204 1,900 120 Level Cleveland Center
09:47PM 41.4292 -81.9042 281° West 166 191 2,200 60 Climbing Cleveland Center
09:48PM 41.4078 -81.9453 235° Southwest 157 181 2,100 -360 Descending Cleveland Center
09:49PM 41.3808 -81.9253 151° Southeast 101 116 1,600 -540 Descending Cleveland Center
09:50PM 41.3917 -81.8894 68° East 114 131 1,100 -540 Descending Cleveland Center